sensor_id;sensor_type;location;lat;lon;timestamp;pressure;altitude;pressure_sealevel;temperature;humidity
24280;BME280;12395;42.808;23.408;2023-05-19T00:00:26;95105.59;;;9.57;100.00
24280;BME280;12395;42.808;23.408;2023-05-19T00:02:52;95122.47;;;9.56;100.00
24280;BME280;12395;42.808;23.408;2023-05-19T00:05:20;95103.38;;;9.61;100.00
24280;BME280;12395;42.808;23.408;2023-05-19T00:07:50;95120.47;;;9.65;100.00
24280;BME280;12395;42.808;23.408;2023-05-19T00:10:16;95110.28;;;9.55;100.00
24280;BME280;12395;42.808;23.408;2023-05-19T00:12:42;95111.13;;;9.62;100.00
24280;BME280;12395;42.808;23.408;2023-05-19T00:15:09;95112.75;;;9.63;100.00
24280;BME280;12395;42.808;23.408;2023-05-19T00:17:34;95107.84;;;9.54;100.00
24280;BME280;12395;42.808;23.408;2023-05-19T00:20:01;95105.31;;;9.46;100.00
24280;BME280;12395;42.808;23.408;2023-05-19T00:22:31;95102.41;;;9.27;100.00
24280;BME280;12395;42.808;23.408;2023-05-19T00:24:57;95088.09;;;9.22;100.00
24280;BME280;12395;42.808;23.408;2023-05-19T00:27:22;95107.03;;;9.19;100.00
24280;BME280;12395;42.808;23.408;2023-05-19T00:29:47;95064.59;;;8.99;100.00
24280;BME280;12395;42.808;23.408;2023-05-19T00:32:13;95094.63;;;9.19;100.00
24280;BME280;12395;42.808;23.408;2023-05-19T00:34:38;95089.28;;;9.13;100.00
24280;BME280;12395;42.808;23.408;2023-05-19T00:37:03;95107.50;;;9.01;100.00
24280;BME280;12395;42.808;23.408;2023-05-19T00:39:29;95100.09;;;8.90;100.00
24280;BME280;12395;42.808;23.408;2023-05-19T00:41:54;95103.81;;;8.68;100.00
24280;BME280;12395;42.808;23.408;2023-05-19T00:44:19;95110.38;;;8.79;100.00
24280;BME280;12395;42.808;23.408;2023-05-19T00:46:45;95113.44;;;8.82;100.00
24280;BME280;12395;42.808;23.408;2023-05-19T00:49:10;95110.97;;;8.74;100.00
24280;BME280;12395;42.808;23.408;2023-05-19T00:51:36;95094.22;;;8.67;100.00
24280;BME280;12395;42.808;23.408;2023-05-19T00:54:01;95105.28;;;8.77;100.00
24280;BME280;12395;42.808;23.408;2023-05-19T00:56:27;95098.41;;;8.55;100.00
24280;BME280;12395;42.808;23.408;2023-05-19T00:58:53;95091.47;;;8.54;100.00
24280;BME280;12395;42.808;23.408;2023-05-19T01:01:19;95099.41;;;8.54;100.00
24280;BME280;12395;42.808;23.408;2023-05-19T01:03:46;95081.63;;;8.41;100.00
24280;BME280;12395;42.808;23.408;2023-05-19T01:06:12;95097.09;;;8.44;100.00
24280;BME280;12395;42.808;23.408;2023-05-19T01:08:38;95093.81;;;8.42;100.00
24280;BME280;12395;42.808;23.408;2023-05-19T01:11:07;95072.13;;;8.26;100.00
24280;BME280;12395;42.808;23.408;2023-05-19T01:13:34;95095.94;;;8.32;100.00
24280;BME280;12395;42.808;23.408;2023-05-19T01:18:50;95101.53;;;8.23;100.00
24280;BME280;12395;42.808;23.408;2023-05-19T01:32:40;95099.91;;;7.86;100.00
24280;BME280;12395;42.808;23.408;2023-05-19T01:35:08;95102.81;;;7.91;100.00
24280;BME280;12395;42.808;23.408;2023-05-19T01:37:36;95099.22;;;7.99;100.00
24280;BME280;12395;42.808;23.408;2023-05-19T01:40:03;95110.91;;;8.11;100.00
24280;BME280;12395;42.808;23.408;2023-05-19T01:42:30;95094.47;;;8.09;100.00
24280;BME280;12395;42.808;23.408;2023-05-19T01:45:02;95098.53;;;8.11;100.00
24280;BME280;12395;42.808;23.408;2023-05-19T01:47:33;95094.91;;;8.12;100.00
24280;BME280;12395;42.808;23.408;2023-05-19T01:49:59;95100.47;;;8.03;100.00
24280;BME280;12395;42.808;23.408;2023-05-19T01:52:25;95092.28;;;8.12;100.00
24280;BME280;12395;42.808;23.408;2023-05-19T01:54:50;95084.91;;;8.08;100.00
24280;BME280;12395;42.808;23.408;2023-05-19T01:57:26;95086.19;;;8.12;100.00
24280;BME280;12395;42.808;23.408;2023-05-19T02:02:56;95094.34;;;8.17;100.00
24280;BME280;12395;42.808;23.408;2023-05-19T02:05:33;95117.25;;;8.31;100.00
24280;BME280;12395;42.808;23.408;2023-05-19T02:08:10;95119.41;;;8.42;100.00
24280;BME280;12395;42.808;23.408;2023-05-19T02:10:39;95113.22;;;8.56;100.00
24280;BME280;12395;42.808;23.408;2023-05-19T02:13:05;95117.81;;;8.69;100.00
24280;BME280;12395;42.808;23.408;2023-05-19T02:15:43;95121.41;;;8.61;100.00
24280;BME280;12395;42.808;23.408;2023-05-19T02:18:10;95096.56;;;8.55;100.00
24280;BME280;12395;42.808;23.408;2023-05-19T02:20:37;95112.72;;;8.67;100.00
24280;BME280;12395;42.808;23.408;2023-05-19T02:23:03;95082.94;;;8.52;100.00
24280;BME280;12395;42.808;23.408;2023-05-19T02:25:28;95111.03;;;8.60;100.00
24280;BME280;12395;42.808;23.408;2023-05-19T02:27:54;95094.88;;;8.27;100.00
24280;BME280;12395;42.808;23.408;2023-05-19T02:30:19;95102.66;;;8.35;100.00
24280;BME280;12395;42.808;23.408;2023-05-19T02:32:45;95101.06;;;8.19;100.00
24280;BME280;12395;42.808;23.408;2023-05-19T02:35:11;95109.25;;;8.24;100.00
24280;BME280;12395;42.808;23.408;2023-05-19T02:37:36;95115.72;;;8.22;100.00
24280;BME280;12395;42.808;23.408;2023-05-19T02:40:02;95118.16;;;8.23;100.00
24280;BME280;12395;42.808;23.408;2023-05-19T02:42:28;95117.72;;;8.20;100.00
24280;BME280;12395;42.808;23.408;2023-05-19T02:44:53;95110.56;;;8.14;100.00
24280;BME280;12395;42.808;23.408;2023-05-19T02:47:19;95111.31;;;8.08;100.00
24280;BME280;12395;42.808;23.408;2023-05-19T02:49:44;95099.66;;;8.02;100.00
24280;BME280;12395;42.808;23.408;2023-05-19T02:52:10;95103.88;;;7.97;100.00
24280;BME280;12395;42.808;23.408;2023-05-19T02:54:36;95109.22;;;8.03;100.00
24280;BME280;12395;42.808;23.408;2023-05-19T02:57:01;95114.06;;;8.00;100.00
24280;BME280;12395;42.808;23.408;2023-05-19T02:59:27;95117.06;;;7.97;100.00
24280;BME280;12395;42.808;23.408;2023-05-19T03:01:58;95129.00;;;7.93;100.00
24280;BME280;12395;42.808;23.408;2023-05-19T03:04:24;95129.19;;;7.91;100.00
24280;BME280;12395;42.808;23.408;2023-05-19T03:06:49;95131.47;;;7.79;100.00
24280;BME280;12395;42.808;23.408;2023-05-19T03:09:15;95135.38;;;7.84;100.00
24280;BME280;12395;42.808;23.408;2023-05-19T03:11:40;95150.22;;;7.85;100.00
24280;BME280;12395;42.808;23.408;2023-05-19T03:14:06;95133.59;;;7.69;100.00
24280;BME280;12395;42.808;23.408;2023-05-19T03:16:33;95139.09;;;7.74;100.00
24280;BME280;12395;42.808;23.408;2023-05-19T03:18:59;95134.56;;;7.68;100.00
24280;BME280;12395;42.808;23.408;2023-05-19T03:21:24;95122.41;;;7.67;100.00
24280;BME280;12395;42.808;23.408;2023-05-19T03:23:50;95145.88;;;7.62;100.00
24280;BME280;12395;42.808;23.408;2023-05-19T03:26:15;95135.13;;;7.64;100.00
24280;BME280;12395;42.808;23.408;2023-05-19T03:28:40;95128.13;;;7.71;100.00
24280;BME280;12395;42.808;23.408;2023-05-19T03:31:06;95144.03;;;7.77;100.00
24280;BME280;12395;42.808;23.408;2023-05-19T03:33:31;95136.19;;;7.84;100.00
24280;BME280;12395;42.808;23.408;2023-05-19T03:35:56;95138.38;;;7.80;100.00
24280;BME280;12395;42.808;23.408;2023-05-19T03:38:22;95137.19;;;7.83;100.00
24280;BME280;12395;42.808;23.408;2023-05-19T03:40:47;95138.00;;;7.84;100.00
24280;BME280;12395;42.808;23.408;2023-05-19T03:43:13;95125.28;;;7.72;100.00
24280;BME280;12395;42.808;23.408;2023-05-19T03:45:40;95143.56;;;7.89;100.00
24280;BME280;12395;42.808;23.408;2023-05-19T03:48:05;95131.19;;;7.74;100.00
24280;BME280;12395;42.808;23.408;2023-05-19T03:50:31;95139.91;;;7.90;100.00
24280;BME280;12395;42.808;23.408;2023-05-19T03:52:58;95140.28;;;7.87;100.00
24280;BME280;12395;42.808;23.408;2023-05-19T03:55:23;95143.38;;;7.90;100.00
24280;BME280;12395;42.808;23.408;2023-05-19T03:57:50;95145.53;;;8.01;100.00
24280;BME280;12395;42.808;23.408;2023-05-19T04:00:17;95150.88;;;8.08;100.00
24280;BME280;12395;42.808;23.408;2023-05-19T04:02:43;95151.47;;;8.24;100.00
24280;BME280;12395;42.808;23.408;2023-05-19T04:05:09;95162.06;;;8.45;100.00
24280;BME280;12395;42.808;23.408;2023-05-19T04:07:34;95146.88;;;8.47;100.00
24280;BME280;12395;42.808;23.408;2023-05-19T04:10:02;95147.69;;;8.48;100.00
24280;BME280;12395;42.808;23.408;2023-05-19T04:12:28;95161.94;;;8.96;100.00
24280;BME280;12395;42.808;23.408;2023-05-19T04:14:53;95154.81;;;9.24;100.00
24280;BME280;12395;42.808;23.408;2023-05-19T04:17:18;95158.31;;;9.59;100.00
24280;BME280;12395;42.808;23.408;2023-05-19T04:19:44;95166.94;;;9.74;100.00
24280;BME280;12395;42.808;23.408;2023-05-19T04:22:09;95173.91;;;9.81;100.00
24280;BME280;12395;42.808;23.408;2023-05-19T04:24:35;95159.25;;;9.79;100.00
24280;BME280;12395;42.808;23.408;2023-05-19T04:27:01;95164.75;;;9.84;100.00
24280;BME280;12395;42.808;23.408;2023-05-19T04:29:28;95162.09;;;9.84;100.00
24280;BME280;12395;42.808;23.408;2023-05-19T04:31:54;95162.94;;;9.91;100.00
24280;BME280;12395;42.808;23.408;2023-05-19T04:34:19;95158.06;;;9.88;100.00
24280;BME280;12395;42.808;23.408;2023-05-19T04:36:44;95142.19;;;9.94;100.00
24280;BME280;12395;42.808;23.408;2023-05-19T04:39:11;95153.50;;;10.16;100.00
24280;BME280;12395;42.808;23.408;2023-05-19T04:41:38;95166.59;;;10.37;100.00
24280;BME280;12395;42.808;23.408;2023-05-19T04:44:05;95161.97;;;10.52;100.00
24280;BME280;12395;42.808;23.408;2023-05-19T04:46:31;95164.44;;;10.73;100.00
24280;BME280;12395;42.808;23.408;2023-05-19T04:48:57;95161.66;;;10.95;100.00
24280;BME280;12395;42.808;23.408;2023-05-19T04:51:25;95177.97;;;11.18;100.00
24280;BME280;12395;42.808;23.408;2023-05-19T04:53:55;95168.97;;;11.32;100.00
24280;BME280;12395;42.808;23.408;2023-05-19T04:56:21;95172.81;;;11.49;100.00
24280;BME280;12395;42.808;23.408;2023-05-19T04:58:47;95168.34;;;11.69;100.00
24280;BME280;12395;42.808;23.408;2023-05-19T05:01:13;95170.78;;;11.77;100.00
24280;BME280;12395;42.808;23.408;2023-05-19T05:03:40;95177.25;;;11.94;100.00
24280;BME280;12395;42.808;23.408;2023-05-19T05:06:05;95170.09;;;12.01;100.00
24280;BME280;12395;42.808;23.408;2023-05-19T05:08:31;95161.06;;;12.09;100.00
24280;BME280;12395;42.808;23.408;2023-05-19T05:10:57;95184.72;;;12.23;100.00
24280;BME280;12395;42.808;23.408;2023-05-19T05:13:23;95174.69;;;12.25;100.00
24280;BME280;12395;42.808;23.408;2023-05-19T05:15:48;95173.88;;;12.31;100.00
24280;BME280;12395;42.808;23.408;2023-05-19T05:18:14;95183.91;;;12.23;100.00
24280;BME280;12395;42.808;23.408;2023-05-19T05:20:41;95181.88;;;12.25;100.00
24280;BME280;12395;42.808;23.408;2023-05-19T05:23:08;95176.97;;;12.22;100.00
24280;BME280;12395;42.808;23.408;2023-05-19T05:25:35;95183.91;;;12.23;100.00
24280;BME280;12395;42.808;23.408;2023-05-19T05:28:00;95186.03;;;12.01;100.00
24280;BME280;12395;42.808;23.408;2023-05-19T05:30:29;95177.25;;;11.94;100.00
24280;BME280;12395;42.808;23.408;2023-05-19T05:32:55;95176.25;;;11.95;100.00
24280;BME280;12395;42.808;23.408;2023-05-19T05:35:22;95188.44;;;12.09;100.00
24280;BME280;12395;42.808;23.408;2023-05-19T05:37:48;95191.47;;;12.19;100.00
24280;BME280;12395;42.808;23.408;2023-05-19T05:40:14;95179.03;;;12.13;100.00
24280;BME280;12395;42.808;23.408;2023-05-19T05:42:39;95199.00;;;12.35;100.00
24280;BME280;12395;42.808;23.408;2023-05-19T05:45:05;95198.09;;;12.48;100.00
24280;BME280;12395;42.808;23.408;2023-05-19T05:47:31;95193.13;;;12.65;100.00
24280;BME280;12395;42.808;23.408;2023-05-19T05:49:57;95208.16;;;12.77;100.00
24280;BME280;12395;42.808;23.408;2023-05-19T05:52:28;95203.41;;;12.86;100.00
24280;BME280;12395;42.808;23.408;2023-05-19T05:54:54;95207.69;;;12.93;100.00
24280;BME280;12395;42.808;23.408;2023-05-19T05:57:20;95215.72;;;13.18;100.00
24280;BME280;12395;42.808;23.408;2023-05-19T05:59:45;95222.50;;;13.39;100.00
24280;BME280;12395;42.808;23.408;2023-05-19T06:02:11;95227.16;;;13.74;100.00
24280;BME280;12395;42.808;23.408;2023-05-19T06:04:36;95234.28;;;13.99;100.00
24280;BME280;12395;42.808;23.408;2023-05-19T06:07:02;95221.41;;;13.96;100.00
24280;BME280;12395;42.808;23.408;2023-05-19T06:09:27;95223.63;;;13.99;100.00
24280;BME280;12395;42.808;23.408;2023-05-19T06:11:55;95234.81;;;14.07;100.00
24280;BME280;12395;42.808;23.408;2023-05-19T06:14:20;95224.09;;;13.96;100.00
24280;BME280;12395;42.808;23.408;2023-05-19T06:16:46;95235.63;;;14.08;100.00
24280;BME280;12395;42.808;23.408;2023-05-19T06:19:12;95241.19;;;14.06;100.00
24280;BME280;12395;42.808;23.408;2023-05-19T06:21:38;95240.28;;;13.94;100.00
24280;BME280;12395;42.808;23.408;2023-05-19T06:24:03;95234.50;;;13.97;100.00
24280;BME280;12395;42.808;23.408;2023-05-19T06:26:29;95237.28;;;14.09;100.00
24280;BME280;12395;42.808;23.408;2023-05-19T06:28:54;95238.16;;;14.21;100.00
24280;BME280;12395;42.808;23.408;2023-05-19T06:31:19;95252.41;;;14.33;100.00
24280;BME280;12395;42.808;23.408;2023-05-19T06:33:46;95237.03;;;14.35;100.00
24280;BME280;12395;42.808;23.408;2023-05-19T06:36:11;95232.13;;;14.32;100.00
24280;BME280;12395;42.808;23.408;2023-05-19T06:38:38;95235.44;;;14.27;100.00
24280;BME280;12395;42.808;23.408;2023-05-19T06:41:03;95234.78;;;14.32;100.00
24280;BME280;12395;42.808;23.408;2023-05-19T06:43:28;95236.41;;;14.33;100.00
24280;BME280;12395;42.808;23.408;2023-05-19T06:45:54;95243.66;;;14.44;100.00
24280;BME280;12395;42.808;23.408;2023-05-19T06:48:20;95230.22;;;14.39;100.00
24280;BME280;12395;42.808;23.408;2023-05-19T06:50:45;95243.25;;;14.47;100.00
24280;BME280;12395;42.808;23.408;2023-05-19T06:53:10;95233.31;;;14.36;100.00
24280;BME280;12395;42.808;23.408;2023-05-19T06:55:36;95236.81;;;14.36;100.00
24280;BME280;12395;42.808;23.408;2023-05-19T06:58:01;95234.34;;;14.53;100.00
24280;BME280;12395;42.808;23.408;2023-05-19T07:00:26;95234.19;;;14.66;97.28
24280;BME280;12395;42.808;23.408;2023-05-19T07:02:52;95235.94;;;14.72;98.38
24280;BME280;12395;42.808;23.408;2023-05-19T07:05:17;95243.06;;;14.78;99.14
24280;BME280;12395;42.808;23.408;2023-05-19T07:07:43;95238.13;;;14.93;100.00
24280;BME280;12395;42.808;23.408;2023-05-19T07:10:09;95230.13;;;14.93;99.68
24280;BME280;12395;42.808;23.408;2023-05-19T07:12:34;95248.78;;;15.11;98.27
24280;BME280;12395;42.808;23.408;2023-05-19T07:14:59;95238.81;;;15.18;97.14
24280;BME280;12395;42.808;23.408;2023-05-19T07:17:25;95229.00;;;15.30;97.74
24280;BME280;12395;42.808;23.408;2023-05-19T07:19:50;95243.34;;;15.48;98.28
24280;BME280;12395;42.808;23.408;2023-05-19T07:22:16;95243.00;;;15.56;97.11
24280;BME280;12395;42.808;23.408;2023-05-19T07:24:41;95240.44;;;15.49;96.94
24280;BME280;12395;42.808;23.408;2023-05-19T07:27:08;95237.78;;;15.61;99.15
24280;BME280;12395;42.808;23.408;2023-05-19T07:29:33;95241.88;;;15.75;98.88
24280;BME280;12395;42.808;23.408;2023-05-19T07:31:59;95243.03;;;15.79;95.59
24280;BME280;12395;42.808;23.408;2023-05-19T07:34:24;95236.88;;;15.90;96.40
24280;BME280;12395;42.808;23.408;2023-05-19T07:36:49;95245.25;;;15.93;94.92
24280;BME280;12395;42.808;23.408;2023-05-19T07:39:16;95250.25;;;16.01;96.56
24280;BME280;12395;42.808;23.408;2023-05-19T07:41:42;95246.63;;;16.19;97.40
24280;BME280;12395;42.808;23.408;2023-05-19T07:44:07;95249.88;;;16.56;93.12
24280;BME280;12395;42.808;23.408;2023-05-19T07:46:34;95237.16;;;16.74;90.56
24280;BME280;12395;42.808;23.408;2023-05-19T07:49:00;95223.56;;;16.76;87.94
24280;BME280;12395;42.808;23.408;2023-05-19T07:51:26;95241.66;;;16.85;89.28
24280;BME280;12395;42.808;23.408;2023-05-19T07:53:51;95249.03;;;16.78;88.49
24280;BME280;12395;42.808;23.408;2023-05-19T07:56:17;95237.03;;;16.81;89.86
24280;BME280;12395;42.808;23.408;2023-05-19T07:58:42;95238.72;;;16.98;89.48
24280;BME280;12395;42.808;23.408;2023-05-19T08:01:08;95238.38;;;16.95;90.09
24280;BME280;12395;42.808;23.408;2023-05-19T08:03:33;95243.78;;;17.12;90.17
24280;BME280;12395;42.808;23.408;2023-05-19T08:05:59;95245.84;;;17.21;90.07
24280;BME280;12395;42.808;23.408;2023-05-19T08:08:24;95238.41;;;17.40;92.89
24280;BME280;12395;42.808;23.408;2023-05-19T08:10:50;95238.97;;;17.53;91.05
24280;BME280;12395;42.808;23.408;2023-05-19T08:13:15;95221.13;;;17.31;88.61
24280;BME280;12395;42.808;23.408;2023-05-19T08:15:41;95233.63;;;17.42;93.48
24280;BME280;12395;42.808;23.408;2023-05-19T08:18:06;95240.00;;;17.52;90.59
24280;BME280;12395;42.808;23.408;2023-05-19T08:20:32;95238.84;;;17.48;88.71
24280;BME280;12395;42.808;23.408;2023-05-19T08:22:58;95244.56;;;17.52;88.04
24280;BME280;12395;42.808;23.408;2023-05-19T08:25:23;95257.25;;;17.73;89.59
24280;BME280;12395;42.808;23.408;2023-05-19T08:27:48;95249.44;;;17.88;85.83
24280;BME280;12395;42.808;23.408;2023-05-19T08:30:14;95244.50;;;17.97;84.80
24280;BME280;12395;42.808;23.408;2023-05-19T08:32:39;95230.50;;;17.95;82.66
24280;BME280;12395;42.808;23.408;2023-05-19T08:35:05;95226.63;;;18.02;83.88
24280;BME280;12395;42.808;23.408;2023-05-19T08:37:31;95246.25;;;18.24;85.71
24280;BME280;12395;42.808;23.408;2023-05-19T08:39:57;95236.09;;;18.26;82.84
24280;BME280;12395;42.808;23.408;2023-05-19T08:42:22;95232.56;;;18.42;84.88
24280;BME280;12395;42.808;23.408;2023-05-19T08:44:47;95230.59;;;18.55;83.95
24280;BME280;12395;42.808;23.408;2023-05-19T08:47:14;95220.50;;;18.62;86.50
24280;BME280;12395;42.808;23.408;2023-05-19T08:49:51;95212.75;;;18.65;83.14
24280;BME280;12395;42.808;23.408;2023-05-19T08:52:34;95241.81;;;18.90;85.91
24280;BME280;12395;42.808;23.408;2023-05-19T08:55:18;95238.59;;;18.93;63.26
24280;BME280;12395;42.808;23.408;2023-05-19T08:57:47;95235.88;;;19.09;67.26
24280;BME280;12395;42.808;23.408;2023-05-19T09:00:14;95236.66;;;19.10;62.23
24280;BME280;12395;42.808;23.408;2023-05-19T09:02:41;95230.22;;;19.11;59.51
24280;BME280;12395;42.808;23.408;2023-05-19T09:05:07;95216.19;;;19.04;61.63
24280;BME280;12395;42.808;23.408;2023-05-19T09:07:35;95228.66;;;19.15;60.00
24280;BME280;12395;42.808;23.408;2023-05-19T09:10:01;95196.06;;;19.06;62.25
24280;BME280;12395;42.808;23.408;2023-05-19T09:12:26;95214.53;;;19.24;61.27
24280;BME280;12395;42.808;23.408;2023-05-19T09:14:52;95200.50;;;19.17;64.35
24280;BME280;12395;42.808;23.408;2023-05-19T09:17:18;95224.59;;;19.34;59.18
24280;BME280;12395;42.808;23.408;2023-05-19T09:19:43;95209.47;;;19.28;61.02
24280;BME280;12395;42.808;23.408;2023-05-19T09:22:13;95221.28;;;19.54;62.57
24280;BME280;12395;42.808;23.408;2023-05-19T09:24:40;95217.31;;;19.61;57.26
24280;BME280;12395;42.808;23.408;2023-05-19T09:27:06;95201.03;;;19.41;55.61
24280;BME280;12395;42.808;23.408;2023-05-19T09:29:31;95197.38;;;19.52;58.83
24280;BME280;12395;42.808;23.408;2023-05-19T09:31:57;95200.69;;;19.64;59.06
24280;BME280;12395;42.808;23.408;2023-05-19T09:34:25;95206.69;;;19.71;55.78
24280;BME280;12395;42.808;23.408;2023-05-19T09:36:52;95204.63;;;19.83;57.14
24280;BME280;12395;42.808;23.408;2023-05-19T09:39:19;95217.06;;;19.94;55.61
24280;BME280;12395;42.808;23.408;2023-05-19T09:41:45;95207.91;;;19.95;55.80
24280;BME280;12395;42.808;23.408;2023-05-19T09:46:51;95221.38;;;19.95;53.84
24280;BME280;12395;42.808;23.408;2023-05-19T09:49:27;95215.75;;;19.97;54.33
24280;BME280;12395;42.808;23.408;2023-05-19T09:52:02;95227.50;;;19.91;52.78
24280;BME280;12395;42.808;23.408;2023-05-19T09:54:32;95205.09;;;19.75;55.83
24280;BME280;12395;42.808;23.408;2023-05-19T09:57:03;95218.06;;;19.83;56.84
24280;BME280;12395;42.808;23.408;2023-05-19T09:59:29;95214.66;;;19.93;58.96
24280;BME280;12395;42.808;23.408;2023-05-19T10:01:56;95217.06;;;19.94;54.64
24280;BME280;12395;42.808;23.408;2023-05-19T10:04:23;95209.44;;;19.81;55.24
24280;BME280;12395;42.808;23.408;2023-05-19T10:06:53;95208.94;;;19.89;59.02
24280;BME280;12395;42.808;23.408;2023-05-19T10:09:23;95188.25;;;19.90;57.06
24280;BME280;12395;42.808;23.408;2023-05-19T10:11:52;95207.47;;;20.04;55.82
24280;BME280;12395;42.808;23.408;2023-05-19T10:14:28;95199.50;;;19.87;58.68
24280;BME280;12395;42.808;23.408;2023-05-19T10:16:55;95196.38;;;19.95;57.13
24280;BME280;12395;42.808;23.408;2023-05-19T10:19:23;95179.16;;;19.96;56.74
24280;BME280;12395;42.808;23.408;2023-05-19T10:21:49;95188.16;;;20.12;53.97
24280;BME280;12395;42.808;23.408;2023-05-19T10:24:15;95172.50;;;20.04;57.60
24280;BME280;12395;42.808;23.408;2023-05-19T10:26:49;95182.50;;;20.13;58.72
24280;BME280;12395;42.808;23.408;2023-05-19T10:29:22;95158.28;;;20.13;58.16
24280;BME280;12395;42.808;23.408;2023-05-19T10:31:50;95171.03;;;20.23;55.83
24280;BME280;12395;42.808;23.408;2023-05-19T10:37:58;95191.25;;;20.30;53.57
24280;BME280;12395;42.808;23.408;2023-05-19T10:40:10;95180.88;;;20.12;54.23
24280;BME280;12395;42.808;23.408;2023-05-19T10:45:17;95176.75;;;20.36;57.61
24280;BME280;12395;42.808;23.408;2023-05-19T10:47:44;95170.38;;;20.52;54.41
24280;BME280;12395;42.808;23.408;2023-05-19T10:50:10;95181.44;;;20.66;52.29
24280;BME280;12395;42.808;23.408;2023-05-19T10:52:37;95186.34;;;20.79;56.25
24280;BME280;12395;42.808;23.408;2023-05-19T10:55:03;95170.78;;;20.86;51.49
24280;BME280;12395;42.808;23.408;2023-05-19T10:57:29;95182.66;;;20.95;51.58
24280;BME280;12395;42.808;23.408;2023-05-19T10:59:57;95170.78;;;20.86;52.56
24280;BME280;12395;42.808;23.408;2023-05-19T11:02:38;95175.63;;;20.94;51.33
24280;BME280;12395;42.808;23.408;2023-05-19T11:05:08;95156.72;;;20.79;52.95
24280;BME280;12395;42.808;23.408;2023-05-19T11:07:34;95172.97;;;20.99;49.34
24280;BME280;12395;42.808;23.408;2023-05-19T11:10:04;95179.47;;;21.03;49.78
24280;BME280;12395;42.808;23.408;2023-05-19T11:12:39;95162.72;;;21.01;52.09
24280;BME280;12395;42.808;23.408;2023-05-19T11:15:06;95163.84;;;21.05;51.27
24280;BME280;12395;42.808;23.408;2023-05-19T11:17:34;95136.56;;;20.87;50.22
24280;BME280;12395;42.808;23.408;2023-05-19T11:19:59;95165.41;;;20.96;49.29
24280;BME280;12395;42.808;23.408;2023-05-19T11:22:26;95183.47;;;21.01;49.44
24280;BME280;12395;42.808;23.408;2023-05-19T11:24:54;95173.75;;;20.95;50.44
24280;BME280;12395;42.808;23.408;2023-05-19T11:29:49;95183.78;;;21.04;49.04
24280;BME280;12395;42.808;23.408;2023-05-19T11:32:24;95171.59;;;20.87;49.34
24280;BME280;12395;42.808;23.408;2023-05-19T11:34:51;95171.84;;;20.80;49.36
24280;BME280;12395;42.808;23.408;2023-05-19T11:37:17;95175.59;;;20.79;49.23
24280;BME280;12395;42.808;23.408;2023-05-19T11:39:44;95174.75;;;20.78;50.08
24280;BME280;12395;42.808;23.408;2023-05-19T11:42:10;95169.19;;;20.95;50.59
24280;BME280;12395;42.808;23.408;2023-05-19T11:44:35;95161.09;;;21.00;51.94
24280;BME280;12395;42.808;23.408;2023-05-19T11:47:03;95148.50;;;21.06;52.91
24280;BME280;12395;42.808;23.408;2023-05-19T11:49:28;95143.91;;;21.11;49.92
24280;BME280;12395;42.808;23.408;2023-05-19T11:51:54;95153.66;;;21.22;50.47
24280;BME280;12395;42.808;23.408;2023-05-19T11:54:20;95156.91;;;21.44;51.96
24280;BME280;12395;42.808;23.408;2023-05-19T11:56:46;95159.88;;;21.73;52.66
24280;BME280;12395;42.808;23.408;2023-05-19T11:59:11;95170.97;;;21.97;51.39
24280;BME280;12395;42.808;23.408;2023-05-19T12:01:37;95168.00;;;21.93;47.30
24280;BME280;12395;42.808;23.408;2023-05-19T12:04:07;95177.44;;;21.81;45.55
24280;BME280;12395;42.808;23.408;2023-05-19T12:06:32;95194.97;;;21.68;49.96
24280;BME280;12395;42.808;23.408;2023-05-19T12:08:58;95205.22;;;21.66;56.00
24280;BME280;12395;42.808;23.408;2023-05-19T12:11:24;95200.06;;;21.60;56.87
24280;BME280;12395;42.808;23.408;2023-05-19T12:13:54;95191.16;;;21.54;57.85
24280;BME280;12395;42.808;23.408;2023-05-19T12:16:22;95190.84;;;21.25;57.82
24280;BME280;12395;42.808;23.408;2023-05-19T12:18:48;95182.16;;;21.03;59.92
24280;BME280;12395;42.808;23.408;2023-05-19T12:21:14;95194.59;;;21.14;60.28
24280;BME280;12395;42.808;23.408;2023-05-19T12:23:40;95188.16;;;21.25;62.77
24280;BME280;12395;42.808;23.408;2023-05-19T12:26:06;95186.56;;;21.29;61.73
24280;BME280;12395;42.808;23.408;2023-05-19T12:28:31;95199.41;;;21.07;59.21
24280;BME280;12395;42.808;23.408;2023-05-19T12:30:57;95174.91;;;21.09;60.06
24280;BME280;12395;42.808;23.408;2023-05-19T12:33:23;95193.28;;;21.27;58.49
24280;BME280;12395;42.808;23.408;2023-05-19T12:35:49;95177.94;;;21.42;61.79
24280;BME280;12395;42.808;23.408;2023-05-19T12:38:15;95175.81;;;21.60;59.22
24280;BME280;12395;42.808;23.408;2023-05-19T12:40:42;95160.13;;;21.41;61.02
24280;BME280;12395;42.808;23.408;2023-05-19T12:43:17;95174.97;;;21.39;60.73
24280;BME280;12395;42.808;23.408;2023-05-19T12:45:43;95177.38;;;21.25;60.81
24280;BME280;12395;42.808;23.408;2023-05-19T12:48:13;95184.94;;;21.23;62.00
24280;BME280;12395;42.808;23.408;2023-05-19T12:50:43;95194.94;;;21.58;59.28
24280;BME280;12395;42.808;23.408;2023-05-19T12:53:16;95179.03;;;21.72;58.64
24280;BME280;12395;42.808;23.408;2023-05-19T12:55:43;95196.59;;;21.89;59.78
24280;BME280;12395;42.808;23.408;2023-05-19T12:58:10;95174.75;;;21.96;58.64
24280;BME280;12395;42.808;23.408;2023-05-19T13:00:43;95195.19;;;22.37;60.37
24280;BME280;12395;42.808;23.408;2023-05-19T13:03:18;95186.50;;;22.65;55.17
24280;BME280;12395;42.808;23.408;2023-05-19T13:05:46;95188.56;;;22.88;54.83
24280;BME280;12395;42.808;23.408;2023-05-19T13:08:17;95185.09;;;22.83;53.74
24280;BME280;12395;42.808;23.408;2023-05-19T13:10:44;95188.84;;;22.92;55.34
24280;BME280;12395;42.808;23.408;2023-05-19T13:13:10;95157.59;;;22.66;53.08